createdAt,value
2022-12-05T00:01:20.767Z,101067.63
2022-12-05T00:03:49.285Z,101057.00
2022-12-05T00:06:16.530Z,101060.50
2022-12-05T00:08:43.881Z,101057.72
2022-12-05T00:11:16.810Z,101060.28
2022-12-05T00:13:44.337Z,101050.50
2022-12-05T00:16:12.972Z,101051.34
2022-12-05T00:18:39.678Z,101057.53
2022-12-05T00:21:06.991Z,101047.75
2022-12-05T00:23:33.821Z,101060.06
2022-12-05T00:26:04.720Z,101055.59
2022-12-05T00:28:32.969Z,101047.63
2022-12-05T00:31:11.765Z,101059.00
2022-12-05T00:33:38.239Z,101038.69
2022-12-05T00:36:07.287Z,101038.69
2022-12-05T00:38:33.598Z,101028.06
2022-12-05T00:41:08.329Z,101034.09
2022-12-05T00:43:35.189Z,101032.41
2022-12-05T00:46:07.135Z,101030.50
2022-12-05T00:48:34.236Z,101034.09
2022-12-05T00:51:09.654Z,101035.81
2022-12-05T00:53:36.428Z,101035.81
2022-12-05T00:56:05.858Z,101030.50
2022-12-05T00:58:33.026Z,101041.13
2022-12-05T01:01:32.433Z,101026.88
2022-12-05T01:04:06.735Z,101037.28
2022-12-05T01:06:33.140Z,101035.59
2022-12-05T01:09:00.003Z,101033.78
2022-12-05T01:11:27.057Z,101040.81
2022-12-05T01:13:53.893Z,101027.50
2022-12-05T01:16:22.085Z,101039.00
2022-12-05T01:18:48.871Z,101046.00
2022-12-05T01:21:15.772Z,101039.75
2022-12-05T01:23:42.097Z,101032.59
2022-12-05T01:26:11.112Z,101032.59
2022-12-05T01:28:37.740Z,101019.31
2022-12-05T01:31:07.658Z,101036.09
2022-12-05T01:33:35.234Z,101039.59
2022-12-05T01:36:03.329Z,101037.91
2022-12-05T01:38:29.725Z,101032.59
2022-12-05T01:41:01.214Z,101035.13
2022-12-05T01:43:27.816Z,101027.16
2022-12-05T01:45:54.197Z,101032.38
2022-12-05T01:48:40.814Z,101033.22
2022-12-05T01:51:07.275Z,101031.53
2022-12-05T01:53:33.781Z,101027.06
2022-12-05T01:56:00.218Z,101034.06
2022-12-05T01:58:32.754Z,101023.44
2022-12-05T02:00:59.092Z,101033.22
2022-12-05T02:03:25.715Z,101031.41
2022-12-05T02:05:54.170Z,101029.63
2022-12-05T02:08:21.403Z,101034.06
2022-12-05T02:10:53.043Z,101020.66
2022-12-05T02:13:38.078Z,101033.00
2022-12-05T02:16:34.837Z,101040.88
2022-12-05T02:19:13.341Z,101038.94
2022-12-05T02:22:06.417Z,101041.59
2022-12-05T02:25:00.603Z,101034.47
2022-12-05T02:28:04.642Z,101034.47
2022-12-05T02:30:43.268Z,101035.22
2022-12-05T02:33:29.095Z,101039.66
2022-12-05T02:36:05.142Z,101021.06
2022-12-05T02:38:38.543Z,101028.94
2022-12-05T02:41:22.275Z,101037.88
2022-12-05T02:43:55.558Z,101030.59
2022-12-05T02:46:25.324Z,101029.78
2022-12-05T02:48:55.861Z,101028.81
2022-12-05T02:51:25.737Z,101031.47
2022-12-05T02:53:56.491Z,101032.31
2022-12-05T02:56:24.112Z,101036.66
2022-12-05T02:58:53.895Z,101033.06
2022-12-05T03:01:24.320Z,101032.09
2022-12-05T03:03:51.447Z,101031.13
2022-12-05T03:06:27.655Z,101034.66
2022-12-05T03:09:11.879Z,101030.06
2022-12-05T03:11:49.339Z,101031.88
2022-12-05T03:14:23.873Z,101025.47
2022-12-05T03:16:53.790Z,101029.94
2022-12-05T03:19:37.261Z,101015.69
2022-12-05T03:22:10.592Z,101036.84
2022-12-05T03:24:40.461Z,101031.53
2022-12-05T03:27:19.001Z,101039.38
2022-12-05T03:29:55.486Z,101052.47
2022-12-05T03:32:30.314Z,101046.19
2022-12-05T03:35:02.719Z,101045.94
2022-12-05T03:37:47.596Z,101045.00
2022-12-05T03:40:52.725Z,101047.28
2022-12-05T03:43:51.330Z,101041.66
2022-12-05T03:46:30.511Z,101046.72
2022-12-05T03:49:16.955Z,101051.09
2022-12-05T03:51:55.709Z,101051.72
2022-12-05T03:54:29.849Z,101044.47
2022-12-05T03:57:03.251Z,101047.88
2022-12-05T03:59:52.426Z,101053.91
2022-12-05T04:02:28.932Z,101054.63
2022-12-05T04:05:01.836Z,101049.31
2022-12-05T04:07:33.329Z,101057.19
2022-12-05T04:10:05.985Z,101056.22
2022-12-05T04:12:35.218Z,101049.94
2022-12-05T04:15:10.656Z,101045.47
2022-12-05T04:17:53.215Z,101050.81
2022-12-05T04:20:56.760Z,101042.69
2022-12-05T04:23:24.045Z,101043.66
2022-12-05T04:26:13.527Z,101047.16
2022-12-05T04:28:51.495Z,101043.66
2022-12-05T04:31:24.234Z,101048.97
2022-12-05T04:33:55.213Z,101054.16
2022-12-05T04:36:40.590Z,101047.06
2022-12-05T04:39:18.054Z,101046.94
2022-12-05T04:41:51.005Z,101049.47
2022-12-05T04:44:20.401Z,101039.78
2022-12-05T04:46:49.620Z,101047.75
2022-12-05T04:49:21.493Z,101049.59
2022-12-05T04:51:52.495Z,101057.72
2022-12-05T04:54:31.130Z,101048.84
2022-12-05T04:57:10.256Z,101046.09
2022-12-05T04:59:36.670Z,101061.06
2022-12-05T05:02:12.693Z,101048.75
2022-12-05T05:04:46.718Z,101054.81
2022-12-05T05:07:14.312Z,101047.75
2022-12-05T05:09:40.807Z,101039.78
2022-12-05T05:12:07.896Z,101054.81
2022-12-05T05:14:34.404Z,101053.84
2022-12-05T05:17:00.968Z,101056.50
2022-12-05T05:19:27.332Z,101053.72
2022-12-05T05:21:53.844Z,101054.56
2022-12-05T05:24:21.721Z,101055.31
2022-12-05T05:26:52.495Z,101061.47
2022-12-05T05:29:22.055Z,101058.72
2022-12-05T05:31:48.417Z,101063.06
2022-12-05T05:34:16.134Z,101069.22
2022-12-05T05:36:43.174Z,101069.22
2022-12-05T05:39:13.604Z,101073.47
2022-12-05T05:41:39.959Z,101080.47
2022-12-05T05:44:06.360Z,101073.22
2022-12-05T05:46:35.427Z,101067.91
2022-12-05T05:49:02.279Z,101072.28
2022-12-05T05:51:30.071Z,101072.13
2022-12-05T05:53:58.276Z,101072.97
2022-12-05T05:56:25.038Z,101069.38
2022-12-05T05:58:56.574Z,101075.44
2022-12-05T06:01:23.318Z,101066.72
2022-12-05T06:03:50.697Z,101075.66
2022-12-05T06:06:18.530Z,101071.31
2022-12-05T06:08:45.335Z,101072.97
2022-12-05T06:11:26.336Z,101072.88
2022-12-05T06:13:57.133Z,101071.91
2022-12-05T06:16:24.086Z,101070.22
2022-12-05T06:18:51.677Z,101075.44
2022-12-05T06:21:18.053Z,101071.06
2022-12-05T06:23:44.756Z,101077.13
2022-12-05T06:26:19.517Z,101068.28
2022-12-05T06:28:45.954Z,101068.28
2022-12-05T06:31:23.770Z,101068.28
2022-12-05T06:33:50.326Z,101078.22
2022-12-05T06:36:20.571Z,101077.38
2022-12-05T06:38:47.318Z,101077.47
2022-12-05T06:41:19.303Z,101078.31
2022-12-05T06:43:46.346Z,101087.28
2022-12-05T06:46:14.383Z,101083.63
2022-12-05T06:48:40.874Z,101087.16
2022-12-05T06:51:10.261Z,101088.00
2022-12-05T06:53:36.587Z,101082.56
2022-12-05T06:56:05.042Z,101082.44
2022-12-05T06:58:31.824Z,101091.19
2022-12-05T07:01:16.888Z,101089.13
2022-12-05T07:03:44.079Z,101090.81
2022-12-05T07:06:11.376Z,101089.97
2022-12-05T07:08:39.005Z,101089.13
2022-12-05T07:11:05.421Z,101093.59
2022-12-05T07:13:31.746Z,101091.69
2022-12-05T07:15:59.042Z,101090.94
2022-12-05T07:18:26.309Z,101097.00
2022-12-05T07:21:12.137Z,101101.34
2022-12-05T07:23:40.419Z,101099.66
2022-12-05T07:26:08.523Z,101104.25
2022-12-05T07:28:35.268Z,101113.06
2022-12-05T07:31:06.202Z,101110.53
2022-12-05T07:33:32.517Z,101108.81
2022-12-05T07:36:03.399Z,101112.34
2022-12-05T07:38:30.335Z,101115.00
2022-12-05T07:40:57.011Z,101106.16
2022-12-05T07:43:23.455Z,101118.41
2022-12-05T07:45:50.383Z,101114.88
2022-12-05T07:48:18.936Z,101118.53
2022-12-05T07:50:45.889Z,101114.88
2022-12-05T07:53:12.385Z,101116.56
2022-12-05T07:55:39.208Z,101120.22
2022-12-05T07:58:05.569Z,101119.38
2022-12-05T08:00:31.941Z,101120.22
2022-12-05T08:02:58.451Z,101119.38
2022-12-05T08:05:24.784Z,101121.19
2022-12-05T08:07:51.156Z,101118.53
2022-12-05T08:10:17.618Z,101123.84
2022-12-05T08:12:43.930Z,101127.47
2022-12-05T08:15:10.415Z,101127.47
2022-12-05T08:17:36.776Z,101127.38
2022-12-05T08:20:03.328Z,101136.06
2022-12-05T08:22:29.705Z,101126.28
2022-12-05T08:24:56.503Z,101132.31
2022-12-05T08:27:23.010Z,101132.22
2022-12-05T08:29:55.826Z,101135.47
2022-12-05T08:32:22.507Z,101137.19
2022-12-05T08:34:49.038Z,101147.50
2022-12-05T08:37:15.380Z,101142.06
2022-12-05T08:39:41.881Z,101144.50
2022-12-05T08:42:08.191Z,101138.22
2022-12-05T08:44:34.513Z,101146.94
2022-12-05T08:47:00.857Z,101145.00
2022-12-05T08:49:28.077Z,101147.56
2022-12-05T08:51:54.437Z,101148.31
2022-12-05T08:54:20.793Z,101153.50
2022-12-05T08:56:51.452Z,101146.25
2022-12-05T08:59:18.156Z,101153.16
2022-12-05T09:01:44.528Z,101153.03
2022-12-05T09:04:12.245Z,101159.06
2022-12-05T09:06:39.802Z,101160.56
2022-12-05T09:09:09.089Z,101165.63
2022-12-05T09:11:40.747Z,101162.72
2022-12-05T09:14:07.442Z,101170.72
2022-12-05T09:16:38.469Z,101160.72
2022-12-05T09:19:06.895Z,101163.22
2022-12-05T09:21:33.277Z,101167.47
2022-12-05T09:24:00.379Z,101166.38
2022-12-05T09:26:28.063Z,101162.63
2022-12-05T09:28:54.446Z,101169.66
2022-12-05T09:31:23.391Z,101170.41
2022-12-05T09:33:51.574Z,101175.63
2022-12-05T09:36:27.045Z,101176.47
2022-12-05T09:38:54.594Z,101178.16
2022-12-05T09:42:07.822Z,101177.31
2022-12-05T09:44:41.580Z,101174.78
2022-12-05T09:47:24.670Z,101178.38
2022-12-05T09:50:02.901Z,101182.03
2022-12-05T09:52:35.837Z,101183.13
2022-12-05T09:55:12.951Z,101175.22
2022-12-05T09:57:47.251Z,101178.03
2022-12-05T10:00:14.425Z,101179.13
2022-12-05T10:03:08.834Z,101179.13
2022-12-05T10:05:54.927Z,101177.53
2022-12-05T10:08:47.188Z,101176.78
2022-12-05T10:11:26.279Z,101176.78
2022-12-05T10:14:19.762Z,101176.91
2022-12-05T10:16:52.291Z,101178.63
2022-12-05T10:19:31.978Z,101173.28
2022-12-05T10:22:04.979Z,101180.19
2022-12-05T10:24:40.471Z,101174.88
2022-12-05T10:27:14.022Z,101173.88
2022-12-05T10:29:49.027Z,101179.13
2022-12-05T10:32:31.924Z,101167.38
2022-12-05T10:35:24.392Z,101171.72
2022-12-05T10:37:58.106Z,101175.13
2022-12-05T10:40:42.884Z,101174.16
2022-12-05T10:43:13.351Z,101171.38
2022-12-05T10:45:43.986Z,101173.06
2022-12-05T10:48:17.346Z,101169.44
2022-12-05T10:50:46.151Z,101163.97
2022-12-05T10:53:18.409Z,101166.63
2022-12-05T10:56:21.380Z,101167.47
2022-12-05T10:58:34.338Z,101161.31
2022-12-05T11:01:14.111Z,101158.78
2022-12-05T11:03:43.325Z,101163.63
2022-12-05T11:06:22.902Z,101158.63
2022-12-05T11:09:10.069Z,101160.81
2022-12-05T11:11:36.626Z,101151.59
2022-12-05T11:14:25.275Z,101146.59
2022-12-05T11:16:57.583Z,101153.25
2022-12-05T11:19:29.086Z,101151.81
2022-12-05T11:21:56.030Z,101148.66
2022-12-05T11:24:25.919Z,101147.91
2022-12-05T11:26:52.514Z,101147.16
2022-12-05T11:29:37.447Z,101144.41
2022-12-05T11:32:06.224Z,101150.56
2022-12-05T11:34:47.525Z,101143.31
2022-12-05T11:37:22.356Z,101145.75
2022-12-05T11:39:48.696Z,101137.75
2022-12-05T11:42:44.957Z,101141.16
2022-12-05T11:45:18.000Z,101142.00
2022-12-05T11:48:22.282Z,101141.00
2022-12-05T11:51:21.629Z,101134.84
2022-12-05T11:54:35.586Z,101131.34
2022-12-05T11:57:56.027Z,101137.66
2022-12-05T12:00:24.895Z,101130.25
2022-12-05T12:03:20.460Z,101131.34
2022-12-05T12:06:20.622Z,101132.31
2022-12-05T12:09:10.561Z,101131.44
2022-12-05T12:11:58.927Z,101136.91
2022-12-05T12:14:34.905Z,101128.91
2022-12-05T12:17:10.509Z,101132.44
2022-12-05T12:19:51.936Z,101132.44
2022-12-05T12:22:49.526Z,101133.03
2022-12-05T12:25:18.914Z,101127.59
2022-12-05T12:28:05.416Z,101122.16
2022-12-05T12:31:02.096Z,101125.53
2022-12-05T12:33:38.953Z,101120.84
2022-12-05T12:36:43.910Z,101125.19
2022-12-05T12:39:37.174Z,101131.50
2022-12-05T12:42:24.454Z,101128.94
2022-12-05T12:45:02.941Z,101128.34
2022-12-05T12:47:39.994Z,101124.09
2022-12-05T12:50:27.345Z,101123.59
2022-12-05T12:53:10.756Z,101119.34
2022-12-05T12:55:50.891Z,101125.88
2022-12-05T12:58:45.245Z,101121.72
2022-12-05T13:01:17.635Z,101118.44
2022-12-05T13:03:51.968Z,101116.00
2022-12-05T13:06:26.806Z,101118.78
2022-12-05T13:09:24.476Z,101109.94
2022-12-05T13:11:53.121Z,101116.13
2022-12-05T13:14:24.742Z,101113.47
2022-12-05T13:16:54.180Z,101116.13
2022-12-05T13:19:50.846Z,101122.16
2022-12-05T13:22:18.615Z,101114.81
2022-12-05T13:24:45.380Z,101113.97
2022-12-05T13:27:20.613Z,101110.44
2022-12-05T13:29:46.847Z,101111.41
2022-12-05T13:32:38.352Z,101112.25
2022-12-05T13:35:07.717Z,101108.00
2022-12-05T13:37:53.315Z,101117.81
2022-12-05T13:40:43.789Z,101116.13
2022-12-05T13:43:12.829Z,101125.06
2022-12-05T13:45:40.864Z,101123.38
2022-12-05T13:48:18.525Z,101124.13
2022-12-05T13:50:52.573Z,101127.63
2022-12-05T13:53:31.127Z,101119.63
2022-12-05T13:56:14.686Z,101122.31
2022-12-05T13:58:46.813Z,101124.81
2022-12-05T14:01:25.258Z,101126.53
2022-12-05T14:03:51.626Z,101127.38
2022-12-05T14:06:39.221Z,101121.97
2022-12-05T14:09:17.661Z,101117.34
2022-12-05T14:12:12.446Z,101113.72
2022-12-05T14:14:57.090Z,101119.94
2022-12-05T14:17:27.889Z,101118.22
2022-12-05T14:20:33.333Z,101119.06
2022-12-05T14:23:23.163Z,101121.72
2022-12-05T14:26:08.933Z,101124.38
2022-12-05T14:28:52.390Z,101126.19
2022-12-05T14:31:42.406Z,101112.00
2022-12-05T14:34:24.830Z,101120.00
2022-12-05T14:37:02.924Z,101113.00
2022-12-05T14:39:35.312Z,101110.44
2022-12-05T14:42:04.880Z,101120.25
2022-12-05T14:44:34.557Z,101121.22
2022-12-05T14:47:05.643Z,101125.69
2022-12-05T14:50:07.245Z,101121.22
2022-12-05T14:52:34.679Z,101131.88
2022-12-05T14:55:12.314Z,101121.22
2022-12-05T14:57:47.726Z,101125.81
2022-12-05T15:00:23.033Z,101122.31
2022-12-05T15:02:52.809Z,101118.78
2022-12-05T15:05:27.302Z,101113.56
2022-12-05T15:07:56.139Z,101119.97
2022-12-05T15:10:29.455Z,101120.97
2022-12-05T15:13:03.196Z,101124.69
2022-12-05T15:15:41.817Z,101124.94
2022-12-05T15:18:34.818Z,101124.94
2022-12-05T15:21:18.119Z,101128.53
2022-12-05T15:23:45.628Z,101136.66
2022-12-05T15:26:46.108Z,101136.66
2022-12-05T15:29:14.898Z,101140.16
2022-12-05T15:31:48.850Z,101139.31
2022-12-05T15:34:36.785Z,101141.13
2022-12-05T15:37:29.082Z,101147.31
2022-12-05T15:39:55.404Z,101142.09
2022-12-05T15:42:31.001Z,101151.75
2022-12-05T15:45:11.652Z,101155.41
2022-12-05T15:47:59.254Z,101154.56
2022-12-05T15:50:35.776Z,101151.91
2022-12-05T15:53:13.451Z,101147.50
2022-12-05T15:55:55.255Z,101144.13
2022-12-05T15:58:48.161Z,101146.66
2022-12-05T16:01:20.972Z,101151.16
2022-12-05T16:03:55.501Z,101155.63
2022-12-05T16:06:44.441Z,101155.72
2022-12-05T16:09:17.461Z,101153.06
2022-12-05T16:12:03.830Z,101153.06
2022-12-05T16:14:58.956Z,101155.88
2022-12-05T16:17:21.725Z,101160.31
2022-12-05T16:19:48.255Z,101154.28
2022-12-05T16:22:17.504Z,101161.38
2022-12-05T16:24:59.249Z,101151.63
2022-12-05T16:27:27.520Z,101157.88
2022-12-05T16:30:13.026Z,101158.00
2022-12-05T16:32:44.836Z,101158.00
2022-12-05T16:35:36.288Z,101161.75
2022-12-05T16:38:25.588Z,101160.28
2022-12-05T16:40:55.859Z,101160.41
2022-12-05T16:43:27.669Z,101160.72
2022-12-05T16:45:56.300Z,101159.16
2022-12-05T16:48:30.821Z,101160.22
2022-12-05T16:51:18.389Z,101159.47
2022-12-05T16:53:48.284Z,101157.03
2022-12-05T16:56:19.913Z,101158.97
2022-12-05T16:58:46.590Z,101160.88
2022-12-05T17:01:27.306Z,101161.84
2022-12-05T17:03:55.533Z,101169.09
2022-12-05T17:06:23.981Z,101166.56
2022-12-05T17:08:51.779Z,101171.97
2022-12-05T17:11:22.837Z,101175.59
2022-12-05T17:13:49.995Z,101168.56
2022-12-05T17:16:18.135Z,101171.22
2022-12-05T17:18:45.412Z,101169.44
2022-12-05T17:21:20.480Z,101169.31
2022-12-05T17:23:48.312Z,101174.75
2022-12-05T17:26:17.542Z,101177.28
2022-12-05T17:28:43.908Z,101168.34
2022-12-05T17:31:13.437Z,101173.66
2022-12-05T17:33:39.874Z,101164.75
2022-12-05T17:36:06.385Z,101168.25
2022-12-05T17:38:32.692Z,101156.63
2022-12-05T17:41:02.547Z,101162.69
2022-12-05T17:43:32.368Z,101161.75
2022-12-05T17:46:02.686Z,101166.00
2022-12-05T17:48:29.441Z,101166.00
2022-12-05T17:50:58.920Z,101173.09
2022-12-05T17:53:25.347Z,101171.31
2022-12-05T17:55:52.032Z,101178.31
2022-12-05T17:58:18.426Z,101176.66
2022-12-05T18:00:46.793Z,101181.09
2022-12-05T18:03:16.200Z,101177.59
2022-12-05T18:05:43.466Z,101189.06
2022-12-05T18:08:10.623Z,101183.75
2022-12-05T18:10:36.972Z,101183.75
2022-12-05T18:13:03.309Z,101190.88
2022-12-05T18:15:30.058Z,101193.44
2022-12-05T18:17:56.506Z,101183.88
2022-12-05T18:20:22.874Z,101189.19
2022-12-05T18:22:51.025Z,101194.53
2022-12-05T18:25:17.385Z,101192.69
2022-12-05T18:27:43.756Z,101190.28
2022-12-05T18:30:11.170Z,101199.19
2022-12-05T18:32:38.381Z,101202.81
2022-12-05T18:35:09.969Z,101204.03
2022-12-05T18:37:39.363Z,101203.16
2022-12-05T18:40:07.391Z,101197.97
2022-12-05T18:42:33.783Z,101197.22
2022-12-05T18:45:01.515Z,101215.00
2022-12-05T18:47:28.171Z,101207.94
2022-12-05T18:49:54.506Z,101206.25
2022-12-05T18:52:20.976Z,101207.94
2022-12-05T18:54:57.649Z,101201.91
2022-12-05T18:57:33.603Z,101210.72
2022-12-05T19:00:00.130Z,101209.88
2022-12-05T19:02:26.604Z,101218.81
2022-12-05T19:04:52.944Z,101212.66
2022-12-05T19:07:19.314Z,101216.16
2022-12-05T19:09:45.781Z,101210.84
2022-12-05T19:12:12.092Z,101221.38
2022-12-05T19:14:38.413Z,101224.88
2022-12-05T19:17:05.008Z,101223.91
2022-12-05T19:19:31.402Z,101222.97
2022-12-05T19:21:59.107Z,101217.66
2022-12-05T19:24:25.571Z,101215.00
2022-12-05T19:26:51.929Z,101221.16
2022-12-05T19:29:18.290Z,101220.06
2022-12-05T19:31:45.559Z,101224.56
2022-12-05T19:34:12.668Z,101222.75
2022-12-05T19:36:44.974Z,101225.19
2022-12-05T19:39:20.361Z,101224.34
2022-12-05T19:41:47.198Z,101221.53
2022-12-05T19:44:13.575Z,101217.09
2022-12-05T19:46:40.146Z,101222.41
2022-12-05T19:49:10.597Z,101218.78
2022-12-05T19:51:37.587Z,101221.34
2022-12-05T19:54:05.519Z,101229.31
2022-12-05T19:56:33.862Z,101225.69
2022-12-05T19:59:00.386Z,101233.69
2022-12-05T20:01:35.185Z,101223.88
2022-12-05T20:04:07.238Z,101228.34
2022-12-05T20:06:37.848Z,101228.34
2022-12-05T20:09:05.690Z,101225.69
2022-12-05T20:11:32.423Z,101226.44
2022-12-05T20:14:01.050Z,101222.94
2022-12-05T20:16:28.093Z,101227.28
2022-12-05T20:18:57.932Z,101227.19
2022-12-05T20:21:24.881Z,101223.66
2022-12-05T20:23:53.069Z,101229.84
2022-12-05T20:26:21.861Z,101228.97
2022-12-05T20:28:48.214Z,101223.66
2022-12-05T20:31:17.886Z,101223.78
2022-12-05T20:33:44.339Z,101223.88
2022-12-05T20:36:16.281Z,101229.31
2022-12-05T20:38:42.754Z,101221.34
2022-12-05T20:41:15.269Z,101233.91
2022-12-05T20:43:45.465Z,101229.41
2022-12-05T20:46:15.018Z,101236.56
2022-12-05T20:48:41.751Z,101238.47
2022-12-05T20:51:10.881Z,101231.47
2022-12-05T20:53:39.101Z,101235.06
2022-12-05T20:56:07.083Z,101229.88
2022-12-05T20:58:33.509Z,101228.16
2022-12-05T21:01:01.359Z,101231.88
2022-12-05T21:03:27.842Z,101228.38
2022-12-05T21:05:54.203Z,101224.03
2022-12-05T21:08:21.227Z,101237.31
2022-12-05T21:10:49.913Z,101232.84
2022-12-05T21:13:16.241Z,101224.88
2022-12-05T21:15:42.650Z,101227.63
2022-12-05T21:18:09.097Z,101224.97
2022-12-05T21:20:41.773Z,101224.13
2022-12-05T21:23:08.549Z,101219.66
2022-12-05T21:25:34.930Z,101219.78
2022-12-05T21:28:02.062Z,101217.97
2022-12-05T21:30:28.545Z,101216.16
2022-12-05T21:32:55.306Z,101220.63
2022-12-05T21:35:21.650Z,101217.97
2022-12-05T21:37:47.962Z,101214.47
2022-12-05T21:40:14.283Z,101210.09
2022-12-05T21:42:40.611Z,101204.75
2022-12-05T21:45:07.405Z,101204.75
2022-12-05T21:47:33.745Z,101211.91
2022-12-05T21:50:00.280Z,101207.41
2022-12-05T21:52:26.868Z,101210.97
2022-12-05T21:54:53.165Z,101211.06
2022-12-05T21:57:20.213Z,101217.22
2022-12-05T21:59:46.712Z,101218.06
2022-12-05T22:02:13.032Z,101213.72
2022-12-05T22:04:39.472Z,101218.19
2022-12-05T22:07:05.786Z,101217.34
2022-12-05T22:09:32.101Z,101216.47
2022-12-05T22:11:58.599Z,101214.78
2022-12-05T22:14:24.897Z,101220.09
2022-12-05T22:16:51.278Z,101221.06
2022-12-05T22:19:17.635Z,101218.41
2022-12-05T22:21:43.994Z,101215.84
2022-12-05T22:24:10.326Z,101213.19
2022-12-05T22:26:36.642Z,101209.69
2022-12-05T22:29:02.977Z,101214.16
2022-12-05T22:31:29.372Z,101211.59
2022-12-05T22:33:55.749Z,101208.84
2022-12-05T22:36:24.069Z,101212.44
2022-12-05T22:38:50.443Z,101205.34
2022-12-05T22:41:22.107Z,101211.50
2022-12-05T22:43:50.011Z,101217.66
2022-12-05T22:46:18.982Z,101215.84
2022-12-05T22:48:46.734Z,101204.38
2022-12-05T22:51:13.760Z,101209.69
2022-12-05T22:53:40.639Z,101213.94
2022-12-05T22:56:09.500Z,101204.25
2022-12-05T22:58:36.461Z,101206.91
2022-12-05T23:01:23.729Z,101208.50
2022-12-05T23:03:58.984Z,101203.06
2022-12-05T23:06:26.625Z,101202.09
2022-12-05T23:08:53.738Z,101194.13
2022-12-05T23:11:20.562Z,101195.84
2022-12-05T23:13:48.810Z,101194.78
2022-12-05T23:16:16.909Z,101194.78
2022-12-05T23:18:49.542Z,101199.97
2022-12-05T23:21:25.101Z,101193.72
2022-12-05T23:23:53.942Z,101195.41
2022-12-05T23:26:22.498Z,101191.78
2022-12-05T23:28:49.323Z,101197.13
2022-12-05T23:31:16.196Z,101194.31
2022-12-05T23:33:42.832Z,101189.97
2022-12-05T23:36:10.850Z,101186.25
2022-12-05T23:38:38.782Z,101187.09
2022-12-05T23:41:06.437Z,101193.25
2022-12-05T23:43:34.689Z,101190.72
2022-12-05T23:46:01.659Z,101196.88
2022-12-05T23:48:28.835Z,101189.84
2022-12-05T23:50:59.350Z,101195.16
2022-12-05T23:53:26.257Z,101190.81
2022-12-05T23:55:52.666Z,101185.59
2022-12-05T23:58:19.092Z,101183.06
